Time;durP1;ratioP1;P1;durP2;ratioP2;P2;SDS_P1;SDS_P2;PMS_P1;PMS_P2;Temp;Humidity;BMP_temperature;BMP_pressure;BME280_temperature;BME280_humidity;BME280_pressure;Samples;Min_cycle;Max_cycle;Signal;HPM_P1;HPM_P2
2021/10/02 00:36:08;;;;;;;7.00;4.10;;;;;;;13.64;73.76;100336.03;5064060;28;20040;-54
2021/10/02 00:41:33;;;;;;;8.75;4.18;;;;;;;13.58;73.62;100349.72;5054850;28;20488;-53
2021/10/02 00:46:47;;;;;;;6.05;4.22;;;;;;;13.58;74.05;100349.72;5059439;28;20044;-52
2021/10/02 00:49:14;;;;;;;9.10;4.18;;;;;;;13.54;73.91;100342.84;5061318;28;20044;-52
2021/10/02 00:51:41;;;;;;;8.63;4.43;;;;;;;13.57;73.63;100352.47;5062565;28;20529;-53
2021/10/02 00:54:07;;;;;;;8.00;4.43;;;;;;;13.57;73.90;100348.00;5061993;28;20044;-53
2021/10/02 00:56:34;;;;;;;5.90;4.25;;;;;;;13.55;73.87;100349.88;5064627;28;20044;-54
2021/10/02 00:59:00;;;;;;;8.13;4.82;;;;;;;13.50;73.82;100344.00;5057423;28;20048;-53
2021/10/02 01:01:40;;;;;;;6.20;4.20;;;;;;;13.49;74.24;100354.72;5057097;28;20052;-54
2021/10/02 01:04:16;;;;;;;6.82;4.10;;;;;;;13.45;74.72;100348.72;5063575;28;20106;-53
2021/10/02 01:07:30;;;;;;;6.60;4.13;;;;;;;13.43;75.02;100345.31;5058658;28;20583;-52
2021/10/02 01:10:21;;;;;;;8.23;4.20;;;;;;;13.42;75.30;100342.72;4973433;28;20142;-53
2021/10/02 01:13:03;;;;;;;6.80;4.03;;;;;;;13.41;75.49;100341.00;5059544;28;20593;-52
2021/10/02 01:15:48;;;;;;;8.55;4.30;;;;;;;13.38;75.70;100341.22;5060020;28;20052;-52
2021/10/02 01:18:29;;;;;;;5.32;3.80;;;;;;;13.31;76.08;100330.09;5064099;28;20051;-52
2021/10/02 01:20:55;;;;;;;;;;;;;;;13.29;75.84;100326.66;5064481;28;20040;-53
2021/10/02 01:23:59;;;;;;;9.40;4.28;;;;;;;13.24;76.44;100318.06;5062093;28;19926;-52
2021/10/02 01:26:43;;;;;;;6.43;4.20;;;;;;;13.20;76.61;100317.44;5064388;28;20070;-51
2021/10/02 01:29:12;;;;;;;7.07;4.43;;;;;;;13.19;76.97;100310.41;5069495;28;20066;-53
2021/10/02 01:31:50;;;;;;;5.35;4.30;;;;;;;13.20;76.85;100313.91;5065428;28;20044;-56
2021/10/02 01:34:33;;;;;;;6.47;4.00;;;;;;;13.21;77.34;100316.47;5057905;28;20072;-54
2021/10/02 01:48:11;;;;;;;6.38;3.80;;;;;;;13.22;77.24;100317.34;5062745;28;20048;-53
2021/10/02 01:50:40;;;;;;;8.10;4.07;;;;;;;13.21;77.88;100319.16;5064591;28;20048;-53
2021/10/02 01:53:09;;;;;;;7.07;3.97;;;;;;;13.20;77.95;100314.78;5062172;28;20308;-54
2021/10/02 01:55:38;;;;;;;6.28;3.50;;;;;;;13.20;77.90;100327.22;5055979;28;20098;-53
2021/10/02 01:58:10;;;;;;;8.43;4.13;;;;;;;13.22;78.36;100310.19;5055703;28;20039;-53
2021/10/02 02:00:43;;;;;;;7.22;3.97;;;;;;;13.19;78.29;100294.44;5063104;28;20059;-54
2021/10/02 02:03:14;;;;;;;5.03;3.65;;;;;;;13.21;78.42;100299.66;5058998;28;20048;-52
2021/10/02 02:05:42;;;;;;;6.10;3.72;;;;;;;13.23;77.91;100297.75;5057133;28;20586;-53
2021/10/02 02:08:14;;;;;;;7.45;3.65;;;;;;;13.25;78.66;100295.84;5060808;28;20242;-53
2021/10/02 02:10:43;;;;;;;5.28;3.70;;;;;;;13.30;77.92;100288.47;5061478;28;20040;-55
2021/10/02 02:13:12;;;;;;;6.22;3.35;;;;;;;13.22;78.10;100277.44;5059164;28;20052;-52
2021/10/02 02:15:40;;;;;;;10.40;3.27;;;;;;;13.40;77.82;100300.25;5063729;28;20051;-54
2021/10/02 02:18:11;;;;;;;6.68;3.13;;;;;;;13.37;77.95;100302.28;5059692;28;20044;-51
2021/10/02 02:20:43;;;;;;;5.93;3.78;;;;;;;13.33;78.47;100290.97;5063683;28;20048;-53
2021/10/02 02:23:12;;;;;;;4.47;3.15;;;;;;;13.30;78.69;100296.44;5060829;28;20699;-53
2021/10/02 02:25:40;;;;;;;7.22;3.30;;;;;;;13.30;79.01;100292.00;5063459;28;20048;-54
2021/10/02 02:28:08;;;;;;;6.32;3.47;;;;;;;13.30;79.21;100283.16;5059167;28;20049;-53
2021/10/02 02:30:35;;;;;;;4.80;3.40;;;;;;;13.26;79.67;100279.81;5062842;28;20044;-53
2021/10/02 02:33:04;;;;;;;5.45;2.95;;;;;;;13.26;80.00;100274.50;5054941;28;20510;-53
2021/10/02 02:35:30;;;;;;;5.53;4.00;;;;;;;13.27;80.36;100270.91;5058327;28;20041;-53
2021/10/02 02:37:58;;;;;;;5.30;3.25;;;;;;;13.31;80.36;100266.25;5052573;28;20458;-52
2021/10/02 02:40:26;;;;;;;8.35;3.85;;;;;;;13.31;80.42;100269.78;5064096;28;20045;-53
2021/10/02 02:42:53;;;;;;;7.55;3.35;;;;;;;13.33;81.06;100267.03;5062243;28;20044;-53
2021/10/02 02:45:21;;;;;;;6.70;3.47;;;;;;;13.34;80.92;100268.72;5060229;28;20403;-52
2021/10/02 02:47:53;;;;;;;8.88;3.08;;;;;;;13.42;81.12;100274.44;5059174;28;20043;-54
2021/10/02 02:50:27;;;;;;;7.57;3.25;;;;;;;13.46;81.01;100273.31;5056693;28;20052;-53
2021/10/02 02:53:01;;;;;;;5.03;3.00;;;;;;;13.46;80.93;100275.09;5059511;28;20044;-52
2021/10/02 02:55:38;;;;;;;6.75;3.60;;;;;;;13.48;81.07;100279.41;5054572;28;20200;-52
2021/10/02 02:58:06;;;;;;;5.65;3.13;;;;;;;13.47;80.95;100285.66;5046510;28;20141;-53
2021/10/02 03:00:41;;;;;;;4.68;3.30;;;;;;;13.48;80.88;100279.41;5060421;28;20386;-52
2021/10/02 03:03:10;;;;;;;6.93;3.30;;;;;;;13.48;81.14;100278.53;5054820;28;20474;-54
2021/10/02 03:05:40;;;;;;;6.57;3.13;;;;;;;13.52;81.04;100280.94;5060119;28;20118;-53
2021/10/02 03:08:11;;;;;;;6.38;3.63;;;;;;;13.52;80.67;100282.72;5063239;28;20131;-52
2021/10/02 03:10:39;;;;;;;4.97;3.08;;;;;;;13.55;80.76;100274.53;5056956;28;20044;-53
2021/10/02 03:13:10;;;;;;;6.72;3.00;;;;;;;13.54;80.39;100284.31;5058359;28;20048;-52
2021/10/02 03:15:39;;;;;;;7.90;3.35;;;;;;;13.49;80.75;100289.09;5056397;28;20513;-55
2021/10/02 03:18:08;;;;;;;6.53;3.42;;;;;;;13.45;81.13;100274.25;5058979;28;20048;-53
2021/10/02 03:20:37;;;;;;;4.88;3.10;;;;;;;13.41;81.31;100272.72;5057482;28;20059;-51
2021/10/02 03:23:05;;;;;;;4.75;3.17;;;;;;;13.35;82.00;100278.44;5055561;28;20086;-53
2021/10/02 03:25:33;;;;;;;5.95;2.90;;;;;;;13.40;81.90;100276.31;5060063;28;20057;-52
2021/10/02 03:28:01;;;;;;;6.15;3.58;;;;;;;13.42;81.47;100279.75;5060032;28;20401;-53
2021/10/02 03:30:30;;;;;;;5.40;2.85;;;;;;;13.40;81.62;100270.16;5058392;28;21520;-52
2021/10/02 03:32:57;;;;;;;5.85;2.83;;;;;;;13.34;82.07;100268.72;5057921;28;20047;-52
2021/10/02 03:35:24;;;;;;;8.15;3.13;;;;;;;13.37;82.05;100278.34;5057550;28;20079;-54
2021/10/02 03:37:51;;;;;;;4.97;3.20;;;;;;;13.36;82.02;100279.28;5056842;28;20498;-52
2021/10/02 03:40:19;;;;;;;4.25;3.00;;;;;;;13.33;82.57;100270.53;5058829;28;20059;-54
2021/10/02 03:42:51;;;;;;;6.90;3.03;;;;;;;13.34;82.67;100276.72;5061578;28;20051;-53
2021/10/02 03:45:19;;;;;;;4.15;2.65;;;;;;;13.36;82.35;100268.66;5056982;28;20140;-53
2021/10/02 03:47:46;;;;;;;5.00;2.75;;;;;;;13.40;82.64;100271.00;5052350;28;20036;-54
2021/10/02 03:50:13;;;;;;;5.63;2.90;;;;;;;13.43;82.36;100273.47;5055687;28;20045;-53
2021/10/02 03:52:40;;;;;;;6.15;3.15;;;;;;;13.53;81.74;100266.69;5062695;28;20045;-52
2021/10/02 03:55:09;;;;;;;6.97;2.97;;;;;;;13.56;81.47;100263.81;5045915;28;20045;-52
2021/10/02 03:57:36;;;;;;;8.57;2.78;;;;;;;13.58;81.61;100272.53;5061048;28;20040;-52
2021/10/02 04:00:05;;;;;;;4.55;2.92;;;;;;;13.63;80.92;100277.59;5065017;28;20044;-52
2021/10/02 04:02:32;;;;;;;5.90;2.70;;;;;;;13.65;80.65;100279.22;5066685;28;20049;-53
2021/10/02 04:04:59;;;;;;;5.88;2.90;;;;;;;13.68;80.74;100287.03;5060437;28;20506;-52
2021/10/02 04:07:25;;;;;;;5.22;2.70;;;;;;;13.69;80.52;100286.03;5058362;28;20040;-54
2021/10/02 04:09:52;;;;;;;6.32;2.53;;;;;;;13.71;80.34;100288.59;5061896;28;20491;-52
2021/10/02 04:12:18;;;;;;;4.80;2.40;;;;;;;13.77;80.27;100282.06;5060184;28;20036;-53
2021/10/02 04:14:47;;;;;;;5.75;2.70;;;;;;;13.80;79.72;100277.41;5062858;28;20051;-52
2021/10/02 04:17:14;;;;;;;4.82;2.20;;;;;;;13.81;79.64;100275.63;5060786;28;20561;-52
2021/10/02 04:19:41;;;;;;;5.18;2.45;;;;;;;13.82;79.45;100278.19;5058156;28;20470;-53
2021/10/02 04:22:09;;;;;;;4.40;2.35;;;;;;;13.85;79.39;100277.13;5061444;28;20071;-52
2021/10/02 04:24:35;;;;;;;7.95;2.40;;;;;;;13.84;79.42;100275.44;5060139;28;20056;-52
2021/10/02 04:27:03;;;;;;;3.38;2.35;;;;;;;13.82;79.48;100272.00;5060805;28;20572;-53
2021/10/02 04:29:29;;;;;;;3.40;2.17;;;;;;;13.84;79.33;100270.09;5061002;28;20048;-52
2021/10/02 04:31:56;;;;;;;5.18;2.45;;;;;;;13.88;79.16;100266.28;5063158;28;20044;-52
2021/10/02 04:34:22;;;;;;;7.07;2.38;;;;;;;13.92;78.96;100258.00;5064556;28;20214;-52
2021/10/02 04:36:49;;;;;;;5.22;2.30;;;;;;;13.92;78.87;100251.84;5058157;28;20055;-54
2021/10/02 04:39:15;;;;;;;4.22;2.08;;;;;;;13.91;79.14;100260.75;5064232;28;20045;-54
2021/10/02 04:41:42;;;;;;;5.28;2.13;;;;;;;13.90;79.02;100261.72;5062860;28;20048;-52
2021/10/02 04:44:09;;;;;;;5.50;2.30;;;;;;;13.91;79.00;100266.09;5065148;28;20055;-53
2021/10/02 04:46:35;;;;;;;8.98;2.25;;;;;;;13.92;79.08;100259.81;5059309;28;20417;-52
2021/10/02 04:49:02;;;;;;;5.55;2.22;;;;;;;13.87;79.31;100253.91;5060089;28;20493;-53
2021/10/02 04:51:28;;;;;;;5.22;2.40;;;;;;;13.90;79.26;100270.56;5064692;28;20451;-53
2021/10/02 04:53:55;;;;;;;5.38;2.47;;;;;;;13.88;79.19;100266.28;5062473;28;20055;-53
2021/10/02 04:56:21;;;;;;;4.57;2.20;;;;;;;13.86;79.60;100249.53;5062937;28;20056;-52
2021/10/02 04:58:48;;;;;;;4.65;2.10;;;;;;;13.87;79.78;100243.25;5064339;28;20058;-55
2021/10/02 05:01:15;;;;;;;8.18;2.50;;;;;;;13.84;80.10;100247.00;5063531;28;20051;-51
2021/10/02 05:03:41;;;;;;;4.53;2.10;;;;;;;13.85;79.82;100251.34;5064600;28;20049;-53
2021/10/02 05:06:08;;;;;;;3.80;2.20;;;;;;;13.83;79.42;100244.44;5062748;28;20518;-53
2021/10/02 05:08:36;;;;;;;5.05;2.28;;;;;;;13.86;79.70;100246.88;5065885;28;20052;-54
2021/10/02 05:11:04;;;;;;;4.53;2.40;;;;;;;13.82;79.57;100251.56;5062786;28;20067;-52
2021/10/02 05:13:32;;;;;;;4.47;2.20;;;;;;;13.87;79.84;100260.09;5059782;28;20041;-55
2021/10/02 05:16:00;;;;;;;4.70;2.30;;;;;;;13.86;79.76;100255.72;5054511;28;20482;-53
2021/10/02 05:18:27;;;;;;;5.18;2.40;;;;;;;13.89;79.49;100247.53;5062018;28;20044;-54
2021/10/02 05:20:53;;;;;;;5.50;2.35;;;;;;;13.90;79.54;100259.06;5052859;28;20037;-51
2021/10/02 05:23:20;;;;;;;4.50;2.40;;;;;;;13.89;79.70;100260.84;5058751;28;20055;-52
2021/10/02 05:25:46;;;;;;;5.95;2.30;;;;;;;13.89;79.81;100257.34;5057272;28;20518;-53
2021/10/02 05:28:13;;;;;;;5.15;2.53;;;;;;;13.95;79.45;100263.16;5049797;28;20505;-53
2021/10/02 05:30:39;;;;;;;7.55;2.70;;;;;;;13.96;79.44;100261.34;5053885;28;20048;-52
2021/10/02 05:33:06;;;;;;;4.25;2.67;;;;;;;13.98;79.46;100262.09;5058662;28;20563;-52
2021/10/02 05:35:33;;;;;;;7.68;2.80;;;;;;;13.99;79.17;100272.66;5052846;28;20052;-52
2021/10/02 05:38:00;;;;;;;5.55;2.60;;;;;;;14.01;79.14;100272.53;5059272;28;20063;-51
2021/10/02 05:40:27;;;;;;;4.50;2.40;;;;;;;14.08;78.91;100273.88;5060581;28;20075;-52
2021/10/02 05:42:54;;;;;;;5.85;2.53;;;;;;;14.05;78.81;100266.94;5058516;28;20071;-53
2021/10/02 05:45:20;;;;;;;5.72;2.25;;;;;;;14.03;78.77;100260.84;5057747;28;20045;-52
2021/10/02 05:47:47;;;;;;;4.57;2.35;;;;;;;14.07;78.59;100264.16;5047234;28;20118;-53
2021/10/02 05:50:13;;;;;;;4.35;2.28;;;;;;;14.08;78.57;100265.03;5055792;28;20301;-53
2021/10/02 05:52:40;;;;;;;3.95;2.20;;;;;;;14.08;78.66;100265.03;5056867;28;20587;-52
2021/10/02 05:55:07;;;;;;;4.82;2.20;;;;;;;14.14;78.21;100273.50;5057043;28;20037;-53
2021/10/02 05:57:34;;;;;;;5.72;2.97;;;;;;;14.15;78.05;100269.03;5058944;28;20387;-53
2021/10/02 06:00:00;;;;;;;4.68;2.38;;;;;;;14.14;78.10;100273.50;5060291;28;20067;-53
2021/10/02 06:02:27;;;;;;;6.88;2.13;;;;;;;14.15;78.18;100280.53;5056990;28;20053;-53
2021/10/02 06:04:55;;;;;;;6.10;2.70;;;;;;;14.12;78.21;100259.41;5053932;28;20047;-52
2021/10/02 06:07:21;;;;;;;5.32;2.80;;;;;;;14.16;78.26;100266.28;5054408;28;20048;-54
2021/10/02 06:09:48;;;;;;;6.75;2.40;;;;;;;14.22;77.93;100257.88;5057132;28;20039;-53
2021/10/02 06:12:15;;;;;;;4.97;2.20;;;;;;;14.22;77.64;100257.88;5049284;28;20041;-52
2021/10/02 06:14:41;;;;;;;3.15;1.95;;;;;;;14.26;77.86;100255.88;5059008;28;20041;-53
2021/10/02 06:17:08;;;;;;;3.78;2.17;;;;;;;14.29;77.31;100258.34;5050742;28;20498;-54
2021/10/02 06:19:34;;;;;;;4.22;2.05;;;;;;;14.29;77.24;100248.53;5060119;28;20044;-53
2021/10/02 06:22:01;;;;;;;6.88;2.65;;;;;;;14.29;77.23;100256.53;5058286;28;20049;-52
2021/10/02 06:24:28;;;;;;;5.90;3.33;;;;;;;14.21;77.45;100239.31;5057700;28;20060;-52
2021/10/02 06:26:55;;;;;;;4.97;2.80;;;;;;;14.29;77.34;100261.84;5049410;28;20393;-51
2021/10/02 06:29:22;;;;;;;8.95;3.17;;;;;;;14.29;77.42;100272.50;5051305;28;20497;-53
2021/10/02 06:31:48;;;;;;;4.13;2.75;;;;;;;14.30;77.44;100282.22;5054863;28;20051;-52
2021/10/02 06:34:15;;;;;;;5.20;3.10;;;;;;;14.34;77.12;100269.53;5056898;28;20040;-52
2021/10/02 06:36:43;;;;;;;3.28;2.75;;;;;;;14.39;77.01;100270.09;5054278;28;20056;-53
2021/10/02 06:39:11;;;;;;;4.53;2.65;;;;;;;14.42;77.10;100277.94;5055226;28;20047;-54
2021/10/02 06:41:38;;;;;;;5.22;2.53;;;;;;;14.43;77.54;100274.31;5057523;28;20044;-53
2021/10/02 06:44:05;;;;;;;5.60;2.60;;;;;;;14.47;77.01;100273.16;5057103;28;20044;-52
2021/10/02 06:46:31;;;;;;;8.23;3.03;;;;;;;14.56;76.74;100279.69;5058774;28;20063;-53
2021/10/02 06:48:58;;;;;;;8.32;2.75;;;;;;;14.65;76.51;100268.44;5056838;28;20571;-52
2021/10/02 06:51:24;;;;;;;5.63;2.55;;;;;;;14.65;76.46;100257.75;5059440;28;20513;-52
2021/10/02 06:53:51;;;;;;;8.38;3.00;;;;;;;14.61;76.95;100266.94;5061633;28;20063;-53
2021/10/02 06:56:17;;;;;;;8.95;3.13;;;;;;;14.56;77.55;100280.56;5059532;28;20055;-53
2021/10/02 06:58:44;;;;;;;9.02;2.72;;;;;;;14.51;77.79;100277.31;5059164;28;20047;-52
2021/10/02 07:01:10;;;;;;;6.68;3.33;;;;;;;14.48;77.89;100279.34;5062955;28;20049;-53
2021/10/02 07:03:37;;;;;;;3.63;2.63;;;;;;;14.51;78.12;100276.47;5054282;28;20134;-51
2021/10/02 07:06:03;;;;;;;11.38;3.20;;;;;;;14.55;78.24;100288.66;5048500;28;20510;-53
2021/10/02 07:08:30;;;;;;;3.88;2.88;;;;;;;14.54;78.39;100290.47;5057867;28;20064;-51
2021/10/02 07:10:57;;;;;;;5.30;3.22;;;;;;;14.59;77.60;100290.16;5055491;28;20041;-52
2021/10/02 07:13:23;;;;;;;5.95;2.78;;;;;;;14.62;77.20;100289.97;5059496;28;20062;-52
2021/10/02 07:15:50;;;;;;;4.28;2.85;;;;;;;14.60;77.72;100283.88;5057804;28;20045;-52
2021/10/02 07:18:17;;;;;;;6.82;3.47;;;;;;;14.56;77.99;100290.34;5058426;28;20041;-52
2021/10/02 07:20:43;;;;;;;5.13;3.40;;;;;;;14.47;77.73;100272.31;5058164;28;20508;-54
2021/10/02 07:23:12;;;;;;;7.03;3.08;;;;;;;14.61;77.78;100283.78;5054017;28;20071;-52
2021/10/02 07:25:38;;;;;;;6.97;3.00;;;;;;;14.65;77.84;100279.94;5057056;28;20045;-54
2021/10/02 07:28:05;;;;;;;6.30;3.10;;;;;;;14.68;77.64;100284.22;5056866;28;20053;-52
2021/10/02 07:30:31;;;;;;;5.93;3.33;;;;;;;14.72;77.17;100286.59;5060571;28;20096;-53
2021/10/02 07:32:58;;;;;;;4.28;2.78;;;;;;;14.81;77.25;100279.78;5058372;28;20044;-53
2021/10/02 07:35:24;;;;;;;7.10;2.78;;;;;;;14.94;76.21;100279.84;5053356;28;20131;-53
2021/10/02 07:37:52;;;;;;;5.22;2.80;;;;;;;14.98;75.54;100276.00;5058612;28;20552;-52
2021/10/02 07:40:19;;;;;;;6.43;3.08;;;;;;;15.07;74.44;100273.59;5059392;28;20072;-52
2021/10/02 07:42:52;;;;;;;6.10;3.08;;;;;;;15.12;74.61;100272.41;5052183;28;20068;-54
2021/10/02 07:45:21;;;;;;;3.30;2.10;;;;;;;15.20;74.05;100262.94;5059713;28;20041;-53
2021/10/02 07:47:51;;;;;;;6.38;2.53;;;;;;;15.31;73.86;100270.19;5060284;28;20161;-53
2021/10/02 07:50:19;;;;;;;7.22;2.47;;;;;;;15.29;73.38;100267.63;5057526;28;20052;-54
2021/10/02 07:52:46;;;;;;;5.32;2.63;;;;;;;15.27;72.61;100266.03;5053464;28;20041;-52
2021/10/02 07:55:15;;;;;;;5.55;2.60;;;;;;;15.20;72.30;100257.59;5058040;28;20517;-54
2021/10/02 07:57:44;;;;;;;3.63;2.58;;;;;;;15.20;72.87;100265.59;5057149;28;20090;-53
2021/10/02 08:00:13;;;;;;;7.43;2.95;;;;;;;15.33;71.94;100252.28;5065335;28;20047;-53
2021/10/02 08:02:47;;;;;;;5.10;2.73;;;;;;;15.33;71.65;100254.94;5053927;28;20252;-54
2021/10/02 08:05:15;;;;;;;6.30;2.63;;;;;;;15.31;71.49;100251.53;5062180;28;20068;-54
2021/10/02 08:07:44;;;;;;;5.95;2.80;;;;;;;15.34;71.53;100253.97;5062807;28;20048;-53
2021/10/02 08:10:12;;;;;;;5.65;2.70;;;;;;;15.45;70.64;100254.09;5067548;28;20045;-54
2021/10/02 08:12:40;;;;;;;7.80;2.75;;;;;;;15.59;70.55;100256.69;5065037;28;20045;-53
2021/10/02 08:15:08;;;;;;;4.22;2.53;;;;;;;15.72;69.93;100246.88;5058915;28;20041;-53
2021/10/02 08:17:37;;;;;;;4.03;2.45;;;;;;;15.82;69.39;100248.88;5059958;28;20040;-54
2021/10/02 08:20:10;;;;;;;7.70;2.72;;;;;;;15.91;68.80;100243.72;5061004;28;20045;-53
2021/10/02 08:22:42;;;;;;;4.65;2.80;;;;;;;16.01;67.94;100241.28;5054078;28;20048;-53
2021/10/02 08:25:11;;;;;;;4.20;2.13;;;;;;;16.14;67.42;100232.25;5062182;28;20051;-53
2021/10/02 08:27:39;;;;;;;6.15;2.20;;;;;;;16.19;66.96;100237.28;5054721;28;20513;-52
2021/10/02 08:30:08;;;;;;;4.75;2.53;;;;;;;16.27;66.59;100234.88;5058221;28;20048;-53
2021/10/02 08:32:35;;;;;;;7.15;2.17;;;;;;;16.31;66.77;100230.19;5057524;28;20466;-53
2021/10/02 08:35:03;;;;;;;5.25;2.53;;;;;;;16.49;65.56;100227.00;5063060;28;20051;-52
2021/10/02 08:37:30;;;;;;;5.18;2.10;;;;;;;16.74;64.45;100231.41;5058051;28;20044;-52
2021/10/02 08:39:57;;;;;;;4.25;2.10;;;;;;;16.94;62.80;100231.72;5054746;28;20126;-52
2021/10/02 08:42:25;;;;;;;4.40;2.08;;;;;;;17.27;61.81;100233.66;5058814;28;20064;-53
2021/10/02 08:44:52;;;;;;;3.67;1.90;;;;;;;17.46;61.39;100242.81;5060793;28;20549;-54
2021/10/02 08:47:21;;;;;;;5.95;2.30;;;;;;;17.35;61.50;100234.75;5053570;28;20049;-53
2021/10/02 08:49:49;;;;;;;4.97;2.35;;;;;;;17.16;61.38;100232.63;5057634;28;20043;-52
2021/10/02 08:52:19;;;;;;;3.53;1.83;;;;;;;17.06;61.05;100228.09;5061075;28;20056;-53
2021/10/02 08:54:52;;;;;;;3.80;1.90;;;;;;;16.93;62.02;100224.66;5059433;28;20505;-53
2021/10/02 08:57:22;;;;;;;6.32;2.00;;;;;;;16.97;62.36;100218.97;5059289;28;20041;-54
2021/10/02 08:59:55;;;;;;;3.45;1.88;;;;;;;17.08;62.10;100221.69;5052563;28;20037;-53
2021/10/02 09:02:23;;;;;;;2.67;2.00;;;;;;;17.41;60.89;100226.25;5054058;28;20060;-55
2021/10/02 09:04:51;;;;;;;4.78;2.13;;;;;;;17.83;60.34;100221.19;5061732;28;20050;-53
2021/10/02 09:07:19;;;;;;;3.35;2.10;;;;;;;18.30;58.59;100214.66;5054266;28;20093;-54
2021/10/02 09:09:54;;;;;;;5.63;3.00;;;;;;;18.47;57.59;100200.72;5060581;28;20043;-53
2021/10/02 09:12:22;;;;;;;3.17;2.05;;;;;;;18.42;57.08;100199.38;5059328;28;20052;-52
2021/10/02 09:14:52;;;;;;;3.30;1.88;;;;;;;18.21;57.31;100193.97;5065010;28;20048;-53
2021/10/02 09:17:20;;;;;;;3.63;1.67;;;;;;;18.11;58.42;100179.59;5053386;28;20048;-52
2021/10/02 09:19:46;;;;;;;7.80;1.92;;;;;;;18.32;57.80;100174.31;5049268;28;20044;-53
2021/10/02 09:22:15;;;;;;;5.28;1.83;;;;;;;18.37;57.26;100169.44;5060966;28;20059;-53
2021/10/02 09:24:43;;;;;;;7.60;2.05;;;;;;;18.38;57.88;100163.97;5043912;28;20053;-53
2021/10/02 09:27:22;;;;;;;2.75;1.88;;;;;;;18.52;56.50;100165.50;5053894;28;20049;-56
2021/10/02 09:29:58;;;;;;;4.15;2.03;;;;;;;18.81;55.92;100165.75;5056517;28;20477;-53
2021/10/02 09:32:30;;;;;;;4.57;1.98;;;;;;;19.02;55.44;100174.66;5062558;28;20050;-54
2021/10/02 09:35:07;;;;;;;3.22;1.67;;;;;;;19.20;54.37;100165.00;5062811;28;20067;-53
2021/10/02 09:37:36;;;;;;;4.32;1.60;;;;;;;19.49;53.70;100167.00;5054546;28;20049;-53
2021/10/02 09:40:20;;;;;;;2.03;1.38;;;;;;;19.76;52.60;100155.69;5060807;28;20063;-54
2021/10/02 09:42:58;;;;;;;8.63;1.98;;;;;;;20.19;51.44;100155.38;5048754;28;20453;-53
2021/10/02 09:45:32;;;;;;;5.18;1.80;;;;;;;20.39;50.45;100148.22;5060032;28;20521;-54
2021/10/02 09:48:01;;;;;;;3.17;1.45;;;;;;;20.37;50.16;100156.41;5053661;28;20044;-54
2021/10/02 09:50:31;;;;;;;3.03;1.40;;;;;;;20.56;50.10;100139.44;5061484;28;20056;-51
2021/10/02 09:53:04;;;;;;;4.90;1.80;;;;;;;20.91;49.45;100160.38;5061945;28;20506;-53
2021/10/02 09:55:35;;;;;;;5.97;1.60;;;;;;;20.91;48.87;100163.06;5062956;28;20049;-53
2021/10/02 09:58:08;;;;;;;3.65;1.45;;;;;;;20.87;48.53;100157.13;5047255;28;20049;-53
2021/10/02 10:00:43;;;;;;;3.72;1.70;;;;;;;21.00;48.91;100151.44;5062380;28;20045;-52
2021/10/02 10:03:12;;;;;;;5.00;1.73;;;;;;;20.93;48.94;100143.09;5061226;28;20078;-53
2021/10/02 10:05:53;;;;;;;3.40;2.05;;;;;;;21.02;49.19;100146.75;5056897;28;20040;-52
2021/10/02 10:08:28;;;;;;;3.92;2.20;;;;;;;21.21;48.68;100141.38;5061415;28;20067;-53
2021/10/02 10:11:09;;;;;;;4.30;1.92;;;;;;;21.37;48.29;100131.81;5057014;28;20044;-53
2021/10/02 10:13:36;;;;;;;3.58;1.55;;;;;;;21.29;48.55;100122.59;5057388;28;20048;-53
2021/10/02 10:16:08;;;;;;;3.72;1.40;;;;;;;21.67;47.52;100115.38;5055458;28;20135;-53
2021/10/02 10:18:38;;;;;;;3.90;2.20;;;;;;;21.92;47.60;100116.50;5054091;28;20053;-53
2021/10/02 10:21:09;;;;;;;4.13;1.77;;;;;;;22.08;46.30;100108.63;5050301;28;20045;-53
2021/10/02 10:23:37;;;;;;;3.10;1.63;;;;;;;21.95;46.46;100100.88;5054147;28;20063;-54
2021/10/02 10:26:08;;;;;;;4.38;1.67;;;;;;;21.76;46.57;100103.69;5060471;28;20055;-53
2021/10/02 10:28:40;;;;;;;4.30;1.75;;;;;;;21.64;47.98;100108.44;5054715;28;20051;-53
2021/10/02 10:31:16;;;;;;;3.15;1.88;;;;;;;21.51;47.82;100105.25;5051234;28;20049;-53
2021/10/02 10:33:46;;;;;;;3.92;1.85;;;;;;;21.77;47.47;100102.69;5052928;28;20048;-53
2021/10/02 10:36:14;;;;;;;4.15;1.88;;;;;;;21.97;46.47;100093.47;5051365;28;20180;-53
2021/10/02 10:38:43;;;;;;;2.22;1.65;;;;;;;22.18;45.76;100085.13;5052151;28;20429;-54
2021/10/02 10:41:12;;;;;;;;;;;;;;;22.64;45.12;100086.72;5060113;28;20154;-53
2021/10/02 10:43:39;;;;;;;2.75;1.80;;;;;;;23.19;43.51;100080.19;5053340;28;19924;-52
2021/10/02 10:46:19;;;;;;;3.05;1.90;;;;;;;22.95;44.23;100070.09;5054950;28;20406;-53
2021/10/02 10:48:45;;;;;;;3.97;1.75;;;;;;;23.05;43.51;100066.28;5055720;28;20047;-55
2021/10/02 10:51:14;;;;;;;2.47;1.67;;;;;;;22.89;43.64;100066.16;5049278;28;20123;-53
2021/10/02 10:53:43;;;;;;;4.63;2.00;;;;;;;22.98;42.88;100067.09;5053478;28;20498;-54
2021/10/02 10:56:12;;;;;;;2.65;1.67;;;;;;;22.90;43.06;100064.31;5044132;28;20048;-53
2021/10/02 10:58:39;;;;;;;4.40;1.58;;;;;;;22.58;44.17;100064.91;5049905;28;20045;-52
2021/10/02 11:01:10;;;;;;;2.40;1.60;;;;;;;21.99;45.48;100066.38;5050608;28;20503;-53
2021/10/02 11:03:41;;;;;;;3.50;1.73;;;;;;;22.20;45.49;100066.09;5056635;28;20053;-52
2021/10/02 11:06:19;;;;;;;2.95;1.65;;;;;;;22.80;43.61;100053.63;5058606;28;20044;-53
2021/10/02 11:08:48;;;;;;;2.20;1.60;;;;;;;22.95;43.27;100052.03;5054503;28;20062;-54
2021/10/02 11:11:15;;;;;;;4.32;1.80;;;;;;;23.09;43.35;100053.31;5048095;28;20045;-53
2021/10/02 11:13:42;;;;;;;5.82;1.98;;;;;;;23.40;41.81;100049.06;5053340;28;20045;-53
2021/10/02 11:16:34;;;;;;;3.03;2.00;;;;;;;23.42;42.30;100044.34;5054263;28;20049;-53
2021/10/02 11:19:00;;;;;;;3.40;1.65;;;;;;;23.64;42.16;100039.38;5056752;28;20091;-55
2021/10/02 11:21:31;;;;;;;3.42;2.25;;;;;;;23.87;41.23;100031.50;5057246;28;20085;-54
2021/10/02 11:24:10;;;;;;;3.05;1.40;;;;;;;24.07;39.99;100027.47;5055314;28;20048;-52
2021/10/02 11:26:56;;;;;;;5.20;2.15;;;;;;;24.13;40.61;100024.09;5056444;28;20040;-53
2021/10/02 11:29:27;;;;;;;2.90;1.98;;;;;;;24.21;39.49;100013.28;5050990;28;20052;-54
2021/10/02 11:32:22;;;;;;;3.05;1.80;;;;;;;23.82;40.00;100013.06;5058621;28;20048;-51
2021/10/02 11:35:15;;;;;;;6.13;2.20;;;;;;;23.68;40.47;100008.31;5054953;28;20051;-53
2021/10/02 11:38:07;;;;;;;3.22;1.42;;;;;;;23.17;40.87;100011.97;5052578;28;20063;-54
2021/10/02 11:40:36;;;;;;;2.03;1.23;;;;;;;23.06;41.65;100000.44;5055154;28;20504;-53
2021/10/02 11:43:12;;;;;;;5.75;1.10;;;;;;;23.03;41.54;99986.41;5056524;28;20051;-52
2021/10/02 11:45:45;;;;;;;3.33;1.65;;;;;;;23.08;41.31;99970.59;5053962;28;20045;-52
2021/10/02 11:48:20;;;;;;;2.92;1.42;;;;;;;23.29;40.95;99962.91;5060307;28;20048;-53
2021/10/02 11:51:07;;;;;;;4.53;1.30;;;;;;;23.69;39.83;99969.44;5054502;28;20052;-52
2021/10/02 11:53:42;;;;;;;1.85;1.35;;;;;;;23.82;40.61;99963.53;5055382;28;20059;-54
2021/10/02 11:56:21;;;;;;;5.88;1.52;;;;;;;23.43;41.04;99964.13;5063901;28;20053;-55
2021/10/02 11:58:50;;;;;;;3.85;1.63;;;;;;;23.16;41.25;99967.06;5056509;28;20051;-53
2021/10/02 12:01:22;;;;;;;2.50;1.42;;;;;;;23.26;40.90;99963.22;5062763;28;20044;-53
2021/10/02 12:03:59;;;;;;;2.50;1.65;;;;;;;23.20;41.42;99963.03;5060159;28;20049;-53
2021/10/02 12:06:26;;;;;;;3.95;1.50;;;;;;;23.08;40.79;99962.47;5063630;28;20056;-53
2021/10/02 12:08:52;;;;;;;3.88;1.95;;;;;;;22.98;40.91;99961.78;5059583;28;20052;-53
2021/10/02 12:11:19;;;;;;;2.70;1.90;;;;;;;22.78;41.67;99961.16;5055794;28;20044;-53
2021/10/02 12:13:51;;;;;;;3.42;1.92;;;;;;;22.77;41.60;99953.22;5059076;28;20045;-52
2021/10/02 12:16:29;;;;;;;1.63;1.52;;;;;;;23.56;40.44;99948.31;5054786;28;20131;-55
2021/10/02 12:19:11;;;;;;;1.92;1.60;;;;;;;24.31;38.32;99934.66;5059381;28;20413;-53
2021/10/02 12:21:48;;;;;;;3.47;1.83;;;;;;;24.94;37.14;99931.97;5055522;28;20410;-53
2021/10/02 12:24:21;;;;;;;3.22;1.67;;;;;;;25.48;35.58;99929.34;5055203;28;20040;-53
2021/10/02 12:26:52;;;;;;;1.83;1.63;;;;;;;25.35;36.05;99942.59;5061193;28;20047;-52
2021/10/02 12:29:26;;;;;;;2.45;1.90;;;;;;;24.73;36.38;99929.81;5062283;28;20491;-54
2021/10/02 12:32:01;;;;;;;2.90;2.10;;;;;;;24.89;36.63;99928.06;5049964;28;20079;-53